createdAt,value
2019-02-09T00:00:22.772Z,67.41
2019-02-09T00:03:09.632Z,67.61
2019-02-09T00:05:56.146Z,67.58
2019-02-09T00:08:54.312Z,67.74
2019-02-09T00:11:12.010Z,67.74
2019-02-09T00:14:00.400Z,68.01
2019-02-09T00:16:46.853Z,68.88
2019-02-09T00:19:14.889Z,68.88
2019-02-09T00:22:01.368Z,68.51
2019-02-09T00:27:20.906Z,70.11
2019-02-09T00:30:07.421Z,70.92
2019-02-09T00:32:53.829Z,71.68
2019-02-09T00:35:21.888Z,71.68
2019-02-09T00:37:49.551Z,72.10
2019-02-09T00:40:36.073Z,72.53
2019-02-09T00:43:06.182Z,72.71
2019-02-09T00:45:52.674Z,73.50
2019-02-09T00:48:20.349Z,73.95
2019-02-09T00:50:48.112Z,73.95
2019-02-09T00:53:34.600Z,74.59
2019-02-09T00:56:21.029Z,74.47
2019-02-09T00:59:07.500Z,74.47
2019-02-09T01:01:54.013Z,74.89
2019-02-09T01:04:40.436Z,75.62
2019-02-09T01:07:08.599Z,75.62
2019-02-09T01:09:55.074Z,75.89
2019-02-09T01:12:22.684Z,75.76
2019-02-09T01:15:09.147Z,75.67
2019-02-09T01:17:36.828Z,75.67
2019-02-09T01:20:06.398Z,75.90
2019-02-09T01:22:52.899Z,76.22
2019-02-09T01:25:39.598Z,76.49
2019-02-09T01:28:26.091Z,77.13
2019-02-09T01:31:12.859Z,77.07
2019-02-09T01:36:15.041Z,77.33
2019-02-09T01:39:16.204Z,77.33
2019-02-09T01:41:31.244Z,77.53
2019-02-09T01:44:17.987Z,77.96
2019-02-09T01:46:45.653Z,77.96
2019-02-09T01:49:34.357Z,78.27
2019-02-09T01:52:21.052Z,78.17
2019-02-09T01:55:07.929Z,78.17
2019-02-09T01:57:35.606Z,78.12
2019-02-09T02:00:23.685Z,78.28
2019-02-09T02:02:51.919Z,78.38
2019-02-09T02:05:21.275Z,78.38
2019-02-09T02:07:48.937Z,78.51
2019-02-09T02:10:16.705Z,78.59
2019-02-09T02:13:03.179Z,78.63
2019-02-09T02:15:30.814Z,78.66
2019-02-09T02:17:58.518Z,78.63
2019-02-09T02:20:44.943Z,78.69
2019-02-09T02:23:13.001Z,78.66
2019-02-09T02:25:59.460Z,78.57
2019-02-09T02:28:45.978Z,78.51
2019-02-09T02:31:13.669Z,78.72
2019-02-09T02:34:00.154Z,78.85
2019-02-09T02:36:27.929Z,78.85
2019-02-09T02:38:55.687Z,79.17
2019-02-09T02:41:43.839Z,79.14
2019-02-09T02:44:11.438Z,79.17
2019-02-09T02:46:58.214Z,79.32
2019-02-09T02:49:26.400Z,78.92
2019-02-09T02:51:55.778Z,78.92
2019-02-09T02:54:23.552Z,78.91
2019-02-09T02:57:10.035Z,79.07
2019-02-09T02:59:56.463Z,78.52
2019-02-09T03:02:24.140Z,78.52
2019-02-09T03:05:10.598Z,79.03
2019-02-09T03:07:38.390Z,79.19
2019-02-09T03:10:25.083Z,79.52
2019-02-09T03:12:53.359Z,79.52
2019-02-09T03:15:21.019Z,79.56
2019-02-09T03:18:07.767Z,79.67
2019-02-09T03:20:35.912Z,79.67
2019-02-09T03:23:03.539Z,79.70
2019-02-09T03:25:51.664Z,79.71
2019-02-09T03:28:38.114Z,79.77
2019-02-09T03:31:06.281Z,79.77
2019-02-09T03:33:35.597Z,79.68
2019-02-09T03:36:03.364Z,79.62
2019-02-09T03:38:51.507Z,79.61
2019-02-09T03:41:19.157Z,79.58
2019-02-09T03:43:46.791Z,79.48
2019-02-09T03:46:33.216Z,79.45
2019-02-09T03:49:01.297Z,79.38
2019-02-09T03:54:20.576Z,79.53
2019-02-09T03:57:07.009Z,79.00
2019-02-09T03:59:53.851Z,79.25
2019-02-09T04:05:28.812Z,79.21
2019-02-09T04:07:58.122Z,79.21
2019-02-09T04:10:25.929Z,78.76
2019-02-09T04:13:14.076Z,78.57
2019-02-09T04:18:35.167Z,78.60
2019-02-09T04:21:02.957Z,78.60
2019-02-09T04:23:49.472Z,78.32
2019-02-09T04:26:17.218Z,78.31
2019-02-09T04:28:45.091Z,78.29
2019-02-09T04:31:31.540Z,77.96
2019-02-09T04:36:51.408Z,77.78
2019-02-09T04:39:37.894Z,77.94
2019-02-09T04:42:05.749Z,77.94
2019-02-09T04:44:52.205Z,77.33
2019-02-09T04:47:38.758Z,77.37
2019-02-09T04:50:06.531Z,77.37
2019-02-09T04:52:53.486Z,77.46
2019-02-09T04:55:39.970Z,77.86
2019-02-09T04:58:26.528Z,77.52
2019-02-09T05:00:54.217Z,77.52
2019-02-09T05:03:22.082Z,77.55
2019-02-09T05:05:49.844Z,77.52
2019-02-09T05:08:36.393Z,77.47
2019-02-09T05:11:04.102Z,77.42
2019-02-09T05:13:50.943Z,77.24
2019-02-09T05:16:20.326Z,77.24
2019-02-09T05:19:07.122Z,77.34
2019-02-09T05:21:53.641Z,77.12
2019-02-09T05:24:40.528Z,77.12
2019-02-09T05:27:10.354Z,76.86
2019-02-09T05:29:39.776Z,76.73
2019-02-09T05:32:26.240Z,76.58
2019-02-09T05:34:54.035Z,76.44
2019-02-09T05:37:41.312Z,76.43
2019-02-09T05:40:09.022Z,76.43
2019-02-09T05:42:55.577Z,76.35
2019-02-09T05:45:42.070Z,75.99
2019-02-09T05:48:10.762Z,75.57
2019-02-09T05:50:57.221Z,75.68
2019-02-09T05:56:16.656Z,75.77
2019-02-09T05:59:03.186Z,75.21
2019-02-09T06:04:36.110Z,74.95
2019-02-09T06:07:03.876Z,74.95
2019-02-09T06:09:50.396Z,74.87
2019-02-09T06:15:06.566Z,74.76
2019-02-09T06:17:53.322Z,75.17
2019-02-09T06:20:21.511Z,74.69
2019-02-09T06:23:07.978Z,74.79
2019-02-09T06:25:35.846Z,74.79
2019-02-09T06:28:03.575Z,74.69
2019-02-09T06:30:31.299Z,75.15
2019-02-09T06:32:59.033Z,75.15
2019-02-09T06:35:45.553Z,74.29
2019-02-09T06:38:13.415Z,74.29
2019-02-09T06:43:46.700Z,73.82
2019-02-09T06:49:19.691Z,74.46
2019-02-09T06:51:47.485Z,73.97
2019-02-09T06:54:34.039Z,73.97
2019-02-09T06:57:20.524Z,74.01
2019-02-09T07:00:07.042Z,73.90
2019-02-09T07:02:37.117Z,73.90
2019-02-09T07:05:23.629Z,73.64
2019-02-09T07:07:51.488Z,73.64
2019-02-09T07:10:39.654Z,74.05
2019-02-09T07:13:07.484Z,74.05
2019-02-09T07:15:35.259Z,74.00
2019-02-09T07:18:21.763Z,75.29
2019-02-09T07:20:51.326Z,75.29
2019-02-09T07:23:37.859Z,76.74
2019-02-09T07:26:24.360Z,76.93
2019-02-09T07:29:11.325Z,76.93
2019-02-09T07:31:38.984Z,76.77
2019-02-09T07:34:25.510Z,76.87
2019-02-09T07:37:11.999Z,76.93
2019-02-09T07:39:58.551Z,77.01
2019-02-09T07:42:29.771Z,77.01
2019-02-09T07:44:57.438Z,77.71
2019-02-09T07:47:34.616Z,77.90
2019-02-09T07:52:58.811Z,78.47
2019-02-09T07:55:45.289Z,78.28
2019-02-09T07:58:31.830Z,78.28
2019-02-09T08:04:06.717Z,78.63
2019-02-09T08:06:53.173Z,78.63
2019-02-09T08:09:40.127Z,78.76
2019-02-09T08:14:57.256Z,78.74
2019-02-09T08:17:24.941Z,78.98
2019-02-09T08:19:52.792Z,79.20
2019-02-09T08:22:39.262Z,79.33
2019-02-09T08:25:25.769Z,79.65
2019-02-09T08:28:12.290Z,79.39
2019-02-09T08:33:31.952Z,79.57
2019-02-09T08:35:59.650Z,79.57
2019-02-09T08:38:46.191Z,79.17
2019-02-09T08:44:05.470Z,78.78
2019-02-09T08:49:24.459Z,79.16
2019-02-09T08:51:52.295Z,79.16
2019-02-09T08:54:38.831Z,78.99
2019-02-09T08:57:06.523Z,78.88
2019-02-09T09:00:06.094Z,79.04
2019-02-09T09:05:30.291Z,77.61
2019-02-09T09:11:03.220Z,77.58
2019-02-09T09:13:49.705Z,77.29
2019-02-09T09:16:36.253Z,77.29
2019-02-09T09:22:10.860Z,76.07
2019-02-09T09:24:57.321Z,75.20
2019-02-09T09:27:25.396Z,75.11
2019-02-09T09:29:53.672Z,75.11
2019-02-09T09:32:40.220Z,74.65
2019-02-09T09:40:46.264Z,74.10
2019-02-09T09:43:34.041Z,73.74
2019-02-09T09:49:07.298Z,72.72
2019-02-09T09:51:35.071Z,72.72
2019-02-09T09:54:21.623Z,72.53
2019-02-09T09:56:49.704Z,72.34
2019-02-09T09:59:17.446Z,72.24
2019-02-09T10:02:05.652Z,71.90
2019-02-09T10:04:33.306Z,71.90
2019-02-09T10:07:01.332Z,71.32
2019-02-09T10:09:29.063Z,71.32
2019-02-09T10:11:56.751Z,71.13
2019-02-09T10:14:43.264Z,70.87
2019-02-09T10:20:06.352Z,70.24
2019-02-09T10:22:52.917Z,70.33
2019-02-09T10:28:27.235Z,69.98
2019-02-09T10:30:55.306Z,70.01
2019-02-09T10:33:23.406Z,68.86
2019-02-09T10:35:55.370Z,68.68
2019-02-09T10:38:26.421Z,68.69
2019-02-09T10:40:59.755Z,68.69
2019-02-09T10:43:27.559Z,68.35
2019-02-09T10:45:56.233Z,68.16
2019-02-09T10:48:24.013Z,67.49
2019-02-09T10:50:53.618Z,67.49
2019-02-09T10:53:21.668Z,66.78
2019-02-09T10:55:49.491Z,65.94
2019-02-09T10:58:17.255Z,66.31
2019-02-09T11:00:47.946Z,65.44
2019-02-09T11:03:19.555Z,65.44
2019-02-09T11:05:47.383Z,64.90
2019-02-09T11:08:15.470Z,65.12
2019-02-09T11:10:43.226Z,65.44
2019-02-09T11:13:28.258Z,65.44
2019-02-09T11:15:56.230Z,65.26
2019-02-09T11:18:24.090Z,65.68
2019-02-09T11:20:51.750Z,65.68
2019-02-09T11:23:21.440Z,65.07
2019-02-09T11:25:49.256Z,64.36
2019-02-09T11:30:50.067Z,64.99
2019-02-09T11:33:17.727Z,64.63
2019-02-09T11:35:45.475Z,64.39
2019-02-09T11:38:15.172Z,64.15
2019-02-09T11:40:42.913Z,64.18
2019-02-09T11:43:10.659Z,63.57
2019-02-09T11:45:38.589Z,63.57
2019-02-09T11:48:10.714Z,63.37
2019-02-09T11:50:43.465Z,63.93
2019-02-09T11:53:19.259Z,63.93
2019-02-09T11:55:48.848Z,64.23
2019-02-09T11:58:19.108Z,65.51
2019-02-09T12:03:33.682Z,65.49
2019-02-09T12:06:04.426Z,65.33
2019-02-09T12:08:34.822Z,64.97
2019-02-09T12:11:07.076Z,65.18
2019-02-09T12:13:34.460Z,66.00
2019-02-09T12:16:05.384Z,66.00
2019-02-09T12:18:51.361Z,66.73
2019-02-09T12:21:38.892Z,66.73
2019-02-09T12:24:09.428Z,66.59
2019-02-09T12:26:46.110Z,65.31
2019-02-09T12:29:17.027Z,63.40
2019-02-09T12:31:47.362Z,62.87
2019-02-09T12:34:17.863Z,62.55
2019-02-09T12:36:48.549Z,62.55
2019-02-09T12:39:23.430Z,62.75
2019-02-09T12:41:57.654Z,62.46
2019-02-09T12:44:29.752Z,62.46
2019-02-09T12:46:57.628Z,62.55
2019-02-09T12:49:28.966Z,62.48
2019-02-09T12:52:03.933Z,62.48
2019-02-09T12:54:32.456Z,62.12
2019-02-09T12:57:01.783Z,62.12
2019-02-09T12:59:31.415Z,60.93
2019-02-09T13:01:59.392Z,60.93
2019-02-09T13:04:27.143Z,61.20
2019-02-09T13:06:54.868Z,61.20
2019-02-09T13:09:28.934Z,61.36
2019-02-09T13:11:58.845Z,61.36
2019-02-09T13:14:26.557Z,62.01
2019-02-09T13:16:56.170Z,62.16
2019-02-09T13:19:26.611Z,63.16
2019-02-09T13:21:54.352Z,64.88
2019-02-09T13:24:22.629Z,66.24
2019-02-09T13:26:53.372Z,67.15
2019-02-09T13:29:22.086Z,67.77
2019-02-09T13:31:50.350Z,68.53
2019-02-09T13:34:19.928Z,69.43
2019-02-09T13:36:49.802Z,69.43
2019-02-09T13:39:19.821Z,69.48
2019-02-09T13:41:47.638Z,69.48
2019-02-09T13:44:18.545Z,69.72
2019-02-09T13:46:46.617Z,69.49
2019-02-09T13:49:19.368Z,69.49
2019-02-09T13:51:49.065Z,69.14
2019-02-09T13:54:17.126Z,68.47
2019-02-09T13:56:48.134Z,68.02
2019-02-09T13:59:15.941Z,67.55
2019-02-09T14:01:43.942Z,67.55
2019-02-09T14:04:19.031Z,67.29
2019-02-09T14:06:44.292Z,66.99
2019-02-09T14:09:12.319Z,66.57
2019-02-09T14:11:42.115Z,66.05
2019-02-09T14:14:09.451Z,66.05
2019-02-09T14:16:38.712Z,65.21
2019-02-09T14:19:06.702Z,64.53
2019-02-09T14:21:34.379Z,64.53
2019-02-09T14:24:02.383Z,64.18
2019-02-09T14:26:30.080Z,63.54
2019-02-09T14:29:00.967Z,63.35
2019-02-09T14:31:30.082Z,63.35
2019-02-09T14:33:57.826Z,63.62
2019-02-09T14:36:25.545Z,63.31
2019-02-09T14:38:53.563Z,63.42
2019-02-09T14:41:21.286Z,64.04
2019-02-09T14:43:48.982Z,64.58
2019-02-09T14:46:17.065Z,64.76
2019-02-09T14:48:44.795Z,64.85
2019-02-09T14:51:13.063Z,64.85
2019-02-09T14:53:41.121Z,65.41
2019-02-09T14:56:11.656Z,66.29
2019-02-09T14:58:39.309Z,67.23
2019-02-09T15:01:07.383Z,68.04
2019-02-09T15:03:35.395Z,68.81
2019-02-09T15:06:03.185Z,69.76
2019-02-09T15:08:34.200Z,69.76
2019-02-09T15:11:02.055Z,71.55
2019-02-09T15:13:31.351Z,71.55
2019-02-09T15:15:59.500Z,71.65
2019-02-09T15:18:27.203Z,71.65
2019-02-09T15:20:56.585Z,72.19
2019-02-09T15:23:27.723Z,72.19
2019-02-09T15:25:55.400Z,72.19
2019-02-09T15:28:23.214Z,72.84
2019-02-09T15:30:54.253Z,73.11
2019-02-09T15:33:27.859Z,73.82
2019-02-09T15:35:58.700Z,73.82
2019-02-09T15:38:25.201Z,73.72
2019-02-09T15:40:53.033Z,74.03
2019-02-09T15:43:28.254Z,74.03
2019-02-09T15:45:56.445Z,74.24
2019-02-09T15:48:24.486Z,74.24
2019-02-09T15:50:56.541Z,74.35
2019-02-09T15:53:26.967Z,74.35
2019-02-09T15:55:54.757Z,74.10
2019-02-09T15:58:23.036Z,73.72
2019-02-09T16:00:50.782Z,73.72
2019-02-09T16:03:18.613Z,74.07
2019-02-09T16:05:46.829Z,73.89
2019-02-09T16:08:14.599Z,74.12
2019-02-09T16:10:42.713Z,74.12
2019-02-09T16:13:12.496Z,73.85
2019-02-09T16:15:40.346Z,73.83
2019-02-09T16:18:10.849Z,73.82
2019-02-09T16:20:38.826Z,73.94
2019-02-09T16:23:06.613Z,73.94
2019-02-09T16:25:34.380Z,73.52
2019-02-09T16:28:02.364Z,73.33
2019-02-09T16:33:05.996Z,73.52
2019-02-09T16:35:36.562Z,73.52
2019-02-09T16:38:04.314Z,73.02
2019-02-09T16:40:33.419Z,72.49
2019-02-09T16:43:01.368Z,72.49
2019-02-09T16:45:29.087Z,72.20
2019-02-09T16:47:57.346Z,72.52
2019-02-09T16:50:37.280Z,72.52
2019-02-09T16:53:05.066Z,72.01
2019-02-09T16:55:32.845Z,71.79
2019-02-09T16:58:02.362Z,71.36
2019-02-09T17:00:30.139Z,71.32
2019-02-09T17:02:58.155Z,70.95
2019-02-09T17:05:28.420Z,70.95
2019-02-09T17:07:56.129Z,70.42
2019-02-09T17:10:26.782Z,70.42
2019-02-09T17:12:54.552Z,69.85
2019-02-09T17:15:22.301Z,69.95
2019-02-09T17:17:54.501Z,69.95
2019-02-09T17:20:24.555Z,69.71
2019-02-09T17:22:52.350Z,69.53
2019-02-09T17:25:20.292Z,69.53
2019-02-09T17:27:49.488Z,69.13
2019-02-09T17:30:17.244Z,69.13
2019-02-09T17:32:45.308Z,68.98
2019-02-09T17:35:15.748Z,68.43
2019-02-09T17:37:43.556Z,68.43
2019-02-09T17:40:13.139Z,69.10
2019-02-09T17:42:43.794Z,69.11
2019-02-09T17:45:13.090Z,69.11
2019-02-09T17:47:41.178Z,68.56
2019-02-09T17:50:11.929Z,68.56
2019-02-09T17:52:41.925Z,68.51
2019-02-09T17:55:23.997Z,68.51
2019-02-09T17:57:39.399Z,68.28
2019-02-09T18:00:10.241Z,68.28
2019-02-09T18:02:45.250Z,68.23
2019-02-09T18:05:29.652Z,68.32
2019-02-09T18:07:55.241Z,68.32
2019-02-09T18:10:23.266Z,68.21
2019-02-09T18:12:51.719Z,68.19
2019-02-09T18:15:19.720Z,68.19
2019-02-09T18:17:47.481Z,67.71
2019-02-09T18:20:15.205Z,67.71
2019-02-09T18:22:43.144Z,68.01
2019-02-09T18:25:10.933Z,68.01
2019-02-09T18:27:38.637Z,67.27
2019-02-09T18:30:25.161Z,67.27
2019-02-09T18:32:54.701Z,67.41
2019-02-09T18:35:22.715Z,67.41
2019-02-09T18:37:53.799Z,66.93
2019-02-09T18:40:21.633Z,67.02
2019-02-09T18:42:52.264Z,67.02
2019-02-09T18:45:23.130Z,66.79
2019-02-09T18:47:53.038Z,66.79
2019-02-09T18:50:22.745Z,66.67
2019-02-09T18:52:57.328Z,66.65
2019-02-09T18:55:30.104Z,66.64
2019-02-09T18:58:02.178Z,66.57
2019-02-09T19:00:32.186Z,66.51
2019-02-09T19:03:00.209Z,67.05
2019-02-09T19:05:28.028Z,67.05
2019-02-09T19:07:57.423Z,66.72
2019-02-09T19:10:27.438Z,66.75
2019-02-09T19:12:55.205Z,66.71
2019-02-09T19:15:25.813Z,66.68
2019-02-09T19:17:55.488Z,66.86
2019-02-09T19:20:27.509Z,66.33
2019-02-09T19:22:56.529Z,66.33
2019-02-09T19:25:24.640Z,66.40
2019-02-09T19:27:52.299Z,66.54
2019-02-09T19:30:21.549Z,66.54
2019-02-09T19:32:49.815Z,66.14
2019-02-09T19:35:18.647Z,65.97
2019-02-09T19:37:46.659Z,65.60
2019-02-09T19:40:16.253Z,65.67
2019-02-09T19:42:43.924Z,65.55
2019-02-09T19:45:12.418Z,65.55
2019-02-09T19:47:40.216Z,65.56
2019-02-09T19:50:11.781Z,65.64
2019-02-09T19:52:53.838Z,65.68
2019-02-09T19:55:22.904Z,65.76
2019-02-09T19:57:53.036Z,67.49
2019-02-09T20:00:20.789Z,67.63
2019-02-09T20:02:50.173Z,67.63
2019-02-09T20:05:27.142Z,68.39
2019-02-09T20:07:58.142Z,68.73
2019-02-09T20:10:32.101Z,68.95
2019-02-09T20:13:04.102Z,69.06
2019-02-09T20:15:41.459Z,69.13
2019-02-09T20:18:10.376Z,68.81
2019-02-09T20:20:46.253Z,68.81
2019-02-09T20:23:08.099Z,68.69
2019-02-09T20:25:35.852Z,68.36
2019-02-09T20:28:04.988Z,68.61
2019-02-09T20:30:33.645Z,69.11
2019-02-09T20:33:01.431Z,69.00
2019-02-09T20:35:34.914Z,69.00
2019-02-09T20:38:04.877Z,68.80
2019-02-09T20:40:35.981Z,68.80
2019-02-09T20:43:05.969Z,68.67
2019-02-09T20:45:33.816Z,68.71
2019-02-09T20:48:05.218Z,68.52
2019-02-09T20:50:32.933Z,68.52
2019-02-09T20:53:00.668Z,68.66
2019-02-09T20:55:28.769Z,68.79
2019-02-09T20:57:58.347Z,68.70
2019-02-09T21:00:26.156Z,68.38
2019-02-09T21:02:53.844Z,68.74
2019-02-09T21:05:23.530Z,69.36
2019-02-09T21:07:55.643Z,69.16
2019-02-09T21:10:26.707Z,69.16
2019-02-09T21:12:58.680Z,69.63
2019-02-09T21:15:26.857Z,69.75
2019-02-09T21:17:54.583Z,69.50
2019-02-09T21:20:22.251Z,69.53
2019-02-09T21:22:50.362Z,69.86
2019-02-09T21:25:18.160Z,69.71
2019-02-09T21:27:45.888Z,69.28
2019-02-09T21:30:16.624Z,68.96
2019-02-09T21:32:53.083Z,68.96
2019-02-09T21:35:23.936Z,68.89
2019-02-09T21:37:51.730Z,68.89
2019-02-09T21:40:19.424Z,69.49
2019-02-09T21:43:05.947Z,69.49
2019-02-09T21:48:27.395Z,69.43
2019-02-09T21:54:00.326Z,69.47
2019-02-09T21:59:26.785Z,69.60
2019-02-09T22:02:13.332Z,69.29
2019-02-09T22:05:00.310Z,69.24
2019-02-09T22:10:29.411Z,69.92
2019-02-09T22:15:58.847Z,69.81
2019-02-09T22:21:23.111Z,69.80
2019-02-09T22:23:54.258Z,69.88
2019-02-09T22:26:40.758Z,69.86
2019-02-09T22:35:05.071Z,70.05
2019-02-09T22:37:51.587Z,69.61
2019-02-09T22:40:19.395Z,69.61
2019-02-09T22:43:07.542Z,70.15
2019-02-09T22:45:54.033Z,70.58
2019-02-09T22:48:40.557Z,70.58
2019-02-09T22:54:13.530Z,69.95
2019-02-09T22:57:00.021Z,69.85
2019-02-09T22:59:46.619Z,70.55
2019-02-09T23:05:21.393Z,70.51
2019-02-09T23:08:03.685Z,70.50
2019-02-09T23:10:37.308Z,70.64
2019-02-09T23:15:59.297Z,70.95
2019-02-09T23:18:27.058Z,70.32
2019-02-09T23:21:13.766Z,70.49
2019-02-09T23:26:59.094Z,70.52
2019-02-09T23:29:47.342Z,70.55
2019-02-09T23:32:23.110Z,70.28
2019-02-09T23:34:50.824Z,70.28
2019-02-09T23:37:44.077Z,70.64
2019-02-09T23:45:37.297Z,70.26
2019-02-09T23:48:07.313Z,70.26
2019-02-09T23:50:56.822Z,71.01
2019-02-09T23:53:26.324Z,71.21
2019-02-09T23:56:16.040Z,71.08
2019-02-09T23:59:02.525Z,71.03
